sensor_id;sensor_type;location;lat;lon;timestamp;P1;durP1;ratioP1;P2;durP2;ratioP2
5117;SDS011;2578;51.622;7.046;2022-10-31T00:03:42;3.20;;;2.10;;
5117;SDS011;2578;51.622;7.046;2022-10-31T00:06:08;3.17;;;2.00;;
5117;SDS011;2578;51.622;7.046;2022-10-31T00:08:34;4.53;;;2.93;;
5117;SDS011;2578;51.622;7.046;2022-10-31T00:10:59;3.20;;;2.00;;
5117;SDS011;2578;51.622;7.046;2022-10-31T00:13:25;3.10;;;1.90;;
5117;SDS011;2578;51.622;7.046;2022-10-31T00:15:51;3.10;;;1.80;;
5117;SDS011;2578;51.622;7.046;2022-10-31T00:18:17;3.10;;;1.80;;
5117;SDS011;2578;51.622;7.046;2022-10-31T00:20:42;3.00;;;1.60;;
5117;SDS011;2578;51.622;7.046;2022-10-31T00:23:08;3.00;;;1.60;;
5117;SDS011;2578;51.622;7.046;2022-10-31T00:25:37;3.00;;;1.60;;
5117;SDS011;2578;51.622;7.046;2022-10-31T00:28:04;3.03;;;1.50;;
5117;SDS011;2578;51.622;7.046;2022-10-31T00:30:31;3.00;;;1.60;;
5117;SDS011;2578;51.622;7.046;2022-10-31T00:32:57;3.00;;;1.60;;
5117;SDS011;2578;51.622;7.046;2022-10-31T00:35:23;2.90;;;1.60;;
5117;SDS011;2578;51.622;7.046;2022-10-31T00:37:48;3.03;;;1.70;;
5117;SDS011;2578;51.622;7.046;2022-10-31T00:40:14;3.03;;;1.60;;
5117;SDS011;2578;51.622;7.046;2022-10-31T00:42:40;3.03;;;1.60;;
5117;SDS011;2578;51.622;7.046;2022-10-31T00:45:07;3.07;;;1.60;;
5117;SDS011;2578;51.622;7.046;2022-10-31T00:47:35;3.10;;;1.70;;
5117;SDS011;2578;51.622;7.046;2022-10-31T00:50:02;3.10;;;1.90;;
5117;SDS011;2578;51.622;7.046;2022-10-31T00:52:28;3.00;;;1.60;;
5117;SDS011;2578;51.622;7.046;2022-10-31T00:54:54;2.90;;;1.60;;
5117;SDS011;2578;51.622;7.046;2022-10-31T00:57:19;3.07;;;1.70;;
5117;SDS011;2578;51.622;7.046;2022-10-31T00:59:45;3.00;;;1.60;;
5117;SDS011;2578;51.622;7.046;2022-10-31T01:02:10;3.10;;;1.73;;
5117;SDS011;2578;51.622;7.046;2022-10-31T01:04:36;4.23;;;2.77;;
5117;SDS011;2578;51.622;7.046;2022-10-31T01:07:02;6.50;;;2.10;;
5117;SDS011;2578;51.622;7.046;2022-10-31T01:09:27;5.07;;;2.43;;
5117;SDS011;2578;51.622;7.046;2022-10-31T01:11:53;2.97;;;1.50;;
5117;SDS011;2578;51.622;7.046;2022-10-31T01:14:18;3.77;;;2.73;;
5117;SDS011;2578;51.622;7.046;2022-10-31T01:16:44;3.60;;;2.20;;
5117;SDS011;2578;51.622;7.046;2022-10-31T01:19:10;4.43;;;3.83;;
5117;SDS011;2578;51.622;7.046;2022-10-31T01:21:35;3.10;;;1.90;;
5117;SDS011;2578;51.622;7.046;2022-10-31T01:24:01;3.07;;;1.60;;
5117;SDS011;2578;51.622;7.046;2022-10-31T01:26:28;3.23;;;1.90;;
5117;SDS011;2578;51.622;7.046;2022-10-31T01:28:59;3.10;;;1.60;;
5117;SDS011;2578;51.622;7.046;2022-10-31T01:31:31;3.07;;;1.50;;
5117;SDS011;2578;51.622;7.046;2022-10-31T01:34:01;3.10;;;1.50;;
5117;SDS011;2578;51.622;7.046;2022-10-31T01:36:28;3.00;;;1.50;;
5117;SDS011;2578;51.622;7.046;2022-10-31T01:38:57;3.07;;;1.50;;
5117;SDS011;2578;51.622;7.046;2022-10-31T01:41:29;6.03;;;2.23;;
5117;SDS011;2578;51.622;7.046;2022-10-31T01:43:58;3.10;;;1.80;;
5117;SDS011;2578;51.622;7.046;2022-10-31T01:46:27;6.70;;;2.67;;
5117;SDS011;2578;51.622;7.046;2022-10-31T01:48:57;3.20;;;1.90;;
5117;SDS011;2578;51.622;7.046;2022-10-31T01:51:26;3.40;;;2.40;;
5117;SDS011;2578;51.622;7.046;2022-10-31T01:53:55;3.30;;;2.00;;
5117;SDS011;2578;51.622;7.046;2022-10-31T01:56:25;3.20;;;1.80;;
5117;SDS011;2578;51.622;7.046;2022-10-31T01:58:51;6.73;;;3.50;;
5117;SDS011;2578;51.622;7.046;2022-10-31T02:01:19;4.07;;;2.20;;
5117;SDS011;2578;51.622;7.046;2022-10-31T02:03:44;3.30;;;1.97;;
5117;SDS011;2578;51.622;7.046;2022-10-31T02:06:35;3.30;;;2.20;;
5117;SDS011;2578;51.622;7.046;2022-10-31T02:09:10;3.20;;;1.80;;
5117;SDS011;2578;51.622;7.046;2022-10-31T02:11:38;3.20;;;1.80;;
5117;SDS011;2578;51.622;7.046;2022-10-31T02:14:04;4.60;;;2.73;;
5117;SDS011;2578;51.622;7.046;2022-10-31T02:16:29;4.00;;;2.83;;
5117;SDS011;2578;51.622;7.046;2022-10-31T02:18:55;4.27;;;3.23;;
5117;SDS011;2578;51.622;7.046;2022-10-31T02:29:39;3.20;;;2.00;;
5117;SDS011;2578;51.622;7.046;2022-10-31T02:32:09;3.07;;;1.70;;
5117;SDS011;2578;51.622;7.046;2022-10-31T02:37:37;3.17;;;1.80;;
5117;SDS011;2578;51.622;7.046;2022-10-31T02:40:23;3.10;;;1.70;;
5117;SDS011;2578;51.622;7.046;2022-10-31T02:45:23;3.10;;;1.50;;
5117;SDS011;2578;51.622;7.046;2022-10-31T02:48:16;3.03;;;1.60;;
5117;SDS011;2578;51.622;7.046;2022-10-31T02:50:46;3.10;;;1.70;;
5117;SDS011;2578;51.622;7.046;2022-10-31T02:53:20;3.40;;;2.30;;
5117;SDS011;2578;51.622;7.046;2022-10-31T02:55:49;3.50;;;2.70;;
5117;SDS011;2578;51.622;7.046;2022-10-31T02:58:22;3.23;;;2.10;;
5117;SDS011;2578;51.622;7.046;2022-10-31T03:01:04;3.23;;;1.90;;
5117;SDS011;2578;51.622;7.046;2022-10-31T03:09:46;3.27;;;1.90;;
5117;SDS011;2578;51.622;7.046;2022-10-31T03:12:26;3.23;;;1.83;;
5117;SDS011;2578;51.622;7.046;2022-10-31T03:15:37;4.37;;;3.70;;
5117;SDS011;2578;51.622;7.046;2022-10-31T03:17:55;3.70;;;2.73;;
5117;SDS011;2578;51.622;7.046;2022-10-31T03:20:24;3.70;;;2.60;;
5117;SDS011;2578;51.622;7.046;2022-10-31T03:22:55;3.40;;;2.20;;
5117;SDS011;2578;51.622;7.046;2022-10-31T03:25:22;3.30;;;2.00;;
5117;SDS011;2578;51.622;7.046;2022-10-31T03:27:48;3.30;;;2.27;;
5117;SDS011;2578;51.622;7.046;2022-10-31T03:30:16;3.20;;;1.70;;
5117;SDS011;2578;51.622;7.046;2022-10-31T03:32:49;3.30;;;1.90;;
5117;SDS011;2578;51.622;7.046;2022-10-31T03:35:19;3.10;;;1.60;;
5117;SDS011;2578;51.622;7.046;2022-10-31T03:37:47;3.20;;;1.80;;
5117;SDS011;2578;51.622;7.046;2022-10-31T03:40:14;3.13;;;1.70;;
5117;SDS011;2578;51.622;7.046;2022-10-31T03:42:42;3.10;;;1.50;;
5117;SDS011;2578;51.622;7.046;2022-10-31T03:45:15;3.20;;;1.70;;
5117;SDS011;2578;51.622;7.046;2022-10-31T03:47:53;3.10;;;1.60;;
5117;SDS011;2578;51.622;7.046;2022-10-31T03:50:19;3.30;;;1.87;;
5117;SDS011;2578;51.622;7.046;2022-10-31T03:52:50;4.90;;;2.93;;
5117;SDS011;2578;51.622;7.046;2022-10-31T03:55:24;3.40;;;2.10;;
5117;SDS011;2578;51.622;7.046;2022-10-31T03:58:02;3.50;;;2.13;;
5117;SDS011;2578;51.622;7.046;2022-10-31T04:00:32;3.23;;;1.90;;
5117;SDS011;2578;51.622;7.046;2022-10-31T04:03:00;3.20;;;1.80;;
5117;SDS011;2578;51.622;7.046;2022-10-31T04:05:29;3.30;;;2.20;;
5117;SDS011;2578;51.622;7.046;2022-10-31T04:07:55;3.13;;;1.80;;
5117;SDS011;2578;51.622;7.046;2022-10-31T04:10:23;3.20;;;1.70;;
5117;SDS011;2578;51.622;7.046;2022-10-31T04:12:52;3.10;;;1.60;;
5117;SDS011;2578;51.622;7.046;2022-10-31T04:15:22;3.10;;;1.60;;
5117;SDS011;2578;51.622;7.046;2022-10-31T04:17:50;3.10;;;1.50;;
5117;SDS011;2578;51.622;7.046;2022-10-31T04:20:28;5.10;;;2.33;;
5117;SDS011;2578;51.622;7.046;2022-10-31T04:23:05;3.30;;;2.07;;
5117;SDS011;2578;51.622;7.046;2022-10-31T04:25:42;3.17;;;1.70;;
5117;SDS011;2578;51.622;7.046;2022-10-31T04:28:07;3.20;;;1.80;;
5117;SDS011;2578;51.622;7.046;2022-10-31T04:30:33;3.30;;;2.03;;
5117;SDS011;2578;51.622;7.046;2022-10-31T04:32:58;6.80;;;4.63;;
5117;SDS011;2578;51.622;7.046;2022-10-31T04:35:24;3.27;;;1.80;;
5117;SDS011;2578;51.622;7.046;2022-10-31T04:37:50;3.20;;;1.70;;
5117;SDS011;2578;51.622;7.046;2022-10-31T04:40:15;5.53;;;2.43;;
5117;SDS011;2578;51.622;7.046;2022-10-31T04:42:41;3.07;;;1.60;;
5117;SDS011;2578;51.622;7.046;2022-10-31T04:45:06;3.10;;;1.60;;
5117;SDS011;2578;51.622;7.046;2022-10-31T04:47:33;3.10;;;1.70;;
5117;SDS011;2578;51.622;7.046;2022-10-31T04:49:59;3.03;;;1.60;;
5117;SDS011;2578;51.622;7.046;2022-10-31T04:52:24;3.10;;;1.60;;
5117;SDS011;2578;51.622;7.046;2022-10-31T04:54:50;3.10;;;1.50;;
5117;SDS011;2578;51.622;7.046;2022-10-31T04:57:15;3.50;;;1.90;;
5117;SDS011;2578;51.622;7.046;2022-10-31T04:59:41;3.20;;;1.80;;
5117;SDS011;2578;51.622;7.046;2022-10-31T05:02:07;6.20;;;4.93;;
5117;SDS011;2578;51.622;7.046;2022-10-31T05:04:32;3.10;;;1.60;;
5117;SDS011;2578;51.622;7.046;2022-10-31T05:06:58;3.20;;;1.80;;
5117;SDS011;2578;51.622;7.046;2022-10-31T05:09:23;4.90;;;2.43;;
5117;SDS011;2578;51.622;7.046;2022-10-31T05:11:49;3.20;;;1.80;;
5117;SDS011;2578;51.622;7.046;2022-10-31T05:14:14;6.27;;;3.17;;
5117;SDS011;2578;51.622;7.046;2022-10-31T05:16:40;3.30;;;2.00;;
5117;SDS011;2578;51.622;7.046;2022-10-31T05:19:06;3.20;;;1.90;;
5117;SDS011;2578;51.622;7.046;2022-10-31T05:21:31;3.20;;;1.80;;
5117;SDS011;2578;51.622;7.046;2022-10-31T05:23:57;3.10;;;1.63;;
5117;SDS011;2578;51.622;7.046;2022-10-31T05:26:23;3.30;;;2.13;;
5117;SDS011;2578;51.622;7.046;2022-10-31T05:28:48;3.20;;;1.90;;
5117;SDS011;2578;51.622;7.046;2022-10-31T05:31:14;3.17;;;1.90;;
5117;SDS011;2578;51.622;7.046;2022-10-31T05:33:39;3.20;;;1.90;;
5117;SDS011;2578;51.622;7.046;2022-10-31T05:36:05;3.20;;;1.97;;
5117;SDS011;2578;51.622;7.046;2022-10-31T05:38:31;3.27;;;2.00;;
5117;SDS011;2578;51.622;7.046;2022-10-31T05:40:56;4.37;;;2.70;;
5117;SDS011;2578;51.622;7.046;2022-10-31T05:43:23;3.70;;;2.73;;
5117;SDS011;2578;51.622;7.046;2022-10-31T05:45:51;3.20;;;1.90;;
5117;SDS011;2578;51.622;7.046;2022-10-31T05:48:20;3.20;;;1.90;;
5117;SDS011;2578;51.622;7.046;2022-10-31T05:50:47;3.30;;;2.00;;
5117;SDS011;2578;51.622;7.046;2022-10-31T05:53:13;3.30;;;2.20;;
5117;SDS011;2578;51.622;7.046;2022-10-31T05:55:39;3.20;;;1.90;;
5117;SDS011;2578;51.622;7.046;2022-10-31T05:58:05;3.20;;;2.00;;
5117;SDS011;2578;51.622;7.046;2022-10-31T06:00:31;3.10;;;1.80;;
5117;SDS011;2578;51.622;7.046;2022-10-31T06:03:00;3.23;;;2.00;;
5117;SDS011;2578;51.622;7.046;2022-10-31T06:05:27;3.20;;;2.00;;
5117;SDS011;2578;51.622;7.046;2022-10-31T06:07:53;3.20;;;2.00;;
5117;SDS011;2578;51.622;7.046;2022-10-31T06:10:19;3.20;;;1.90;;
5117;SDS011;2578;51.622;7.046;2022-10-31T06:12:46;11.13;;;3.97;;
5117;SDS011;2578;51.622;7.046;2022-10-31T06:15:12;3.17;;;1.80;;
5117;SDS011;2578;51.622;7.046;2022-10-31T06:17:37;3.13;;;1.80;;
5117;SDS011;2578;51.622;7.046;2022-10-31T06:20:03;3.10;;;1.70;;
5117;SDS011;2578;51.622;7.046;2022-10-31T06:22:30;3.13;;;1.77;;
5117;SDS011;2578;51.622;7.046;2022-10-31T06:24:55;3.10;;;1.80;;
5117;SDS011;2578;51.622;7.046;2022-10-31T06:27:21;3.40;;;2.40;;
5117;SDS011;2578;51.622;7.046;2022-10-31T06:29:47;3.27;;;2.20;;
5117;SDS011;2578;51.622;7.046;2022-10-31T06:32:13;4.53;;;3.17;;
5117;SDS011;2578;51.622;7.046;2022-10-31T06:34:39;3.10;;;1.70;;
5117;SDS011;2578;51.622;7.046;2022-10-31T06:37:06;3.10;;;1.70;;
5117;SDS011;2578;51.622;7.046;2022-10-31T06:39:32;3.20;;;1.93;;
5117;SDS011;2578;51.622;7.046;2022-10-31T06:41:58;3.20;;;1.90;;
5117;SDS011;2578;51.622;7.046;2022-10-31T06:44:24;3.17;;;1.80;;
5117;SDS011;2578;51.622;7.046;2022-10-31T06:46:49;3.17;;;1.80;;
5117;SDS011;2578;51.622;7.046;2022-10-31T06:49:15;3.20;;;1.90;;
5117;SDS011;2578;51.622;7.046;2022-10-31T06:51:41;3.20;;;1.90;;
5117;SDS011;2578;51.622;7.046;2022-10-31T06:54:07;3.27;;;2.00;;
5117;SDS011;2578;51.622;7.046;2022-10-31T06:56:32;3.20;;;1.90;;
5117;SDS011;2578;51.622;7.046;2022-10-31T06:58:58;3.20;;;2.00;;
5117;SDS011;2578;51.622;7.046;2022-10-31T07:01:23;3.20;;;1.90;;
5117;SDS011;2578;51.622;7.046;2022-10-31T07:03:49;3.20;;;1.90;;
5117;SDS011;2578;51.622;7.046;2022-10-31T07:06:15;3.20;;;1.93;;
5117;SDS011;2578;51.622;7.046;2022-10-31T07:08:40;3.20;;;1.80;;
5117;SDS011;2578;51.622;7.046;2022-10-31T07:11:06;3.13;;;1.80;;
5117;SDS011;2578;51.622;7.046;2022-10-31T07:13:32;3.30;;;2.10;;
5117;SDS011;2578;51.622;7.046;2022-10-31T07:16:02;3.17;;;1.80;;
5117;SDS011;2578;51.622;7.046;2022-10-31T07:18:32;3.27;;;2.00;;
5117;SDS011;2578;51.622;7.046;2022-10-31T07:20:58;4.20;;;2.57;;
5117;SDS011;2578;51.622;7.046;2022-10-31T07:23:24;3.33;;;2.30;;
5117;SDS011;2578;51.622;7.046;2022-10-31T07:25:54;3.27;;;2.00;;
5117;SDS011;2578;51.622;7.046;2022-10-31T07:28:20;3.27;;;2.00;;
5117;SDS011;2578;51.622;7.046;2022-10-31T07:30:49;3.37;;;2.30;;
5117;SDS011;2578;51.622;7.046;2022-10-31T07:33:16;3.50;;;2.70;;
5117;SDS011;2578;51.622;7.046;2022-10-31T07:35:41;3.30;;;2.20;;
5117;SDS011;2578;51.622;7.046;2022-10-31T07:38:08;3.50;;;2.60;;
5117;SDS011;2578;51.622;7.046;2022-10-31T07:40:35;3.53;;;2.73;;
5117;SDS011;2578;51.622;7.046;2022-10-31T07:43:01;9.00;;;5.73;;
5117;SDS011;2578;51.622;7.046;2022-10-31T07:45:26;3.50;;;2.73;;
5117;SDS011;2578;51.622;7.046;2022-10-31T07:47:52;3.40;;;2.33;;
5117;SDS011;2578;51.622;7.046;2022-10-31T07:50:19;4.20;;;3.80;;
5117;SDS011;2578;51.622;7.046;2022-10-31T07:52:46;3.50;;;2.80;;
5117;SDS011;2578;51.622;7.046;2022-10-31T07:55:13;3.50;;;2.80;;
5117;SDS011;2578;51.622;7.046;2022-10-31T07:57:39;4.57;;;4.17;;
5117;SDS011;2578;51.622;7.046;2022-10-31T08:00:06;3.50;;;2.70;;
5117;SDS011;2578;51.622;7.046;2022-10-31T08:02:33;3.60;;;3.00;;
5117;SDS011;2578;51.622;7.046;2022-10-31T08:04:59;3.40;;;2.40;;
5117;SDS011;2578;51.622;7.046;2022-10-31T08:07:28;3.40;;;2.53;;
5117;SDS011;2578;51.622;7.046;2022-10-31T08:09:54;3.40;;;2.50;;
5117;SDS011;2578;51.622;7.046;2022-10-31T08:12:20;3.67;;;3.10;;
5117;SDS011;2578;51.622;7.046;2022-10-31T08:14:49;3.60;;;3.17;;
5117;SDS011;2578;51.622;7.046;2022-10-31T08:17:16;3.70;;;3.30;;
5117;SDS011;2578;51.622;7.046;2022-10-31T08:19:52;4.40;;;4.00;;
5117;SDS011;2578;51.622;7.046;2022-10-31T08:22:30;4.40;;;4.00;;
5117;SDS011;2578;51.622;7.046;2022-10-31T08:24:56;4.77;;;4.37;;
5117;SDS011;2578;51.622;7.046;2022-10-31T08:27:22;4.77;;;4.37;;
5117;SDS011;2578;51.622;7.046;2022-10-31T08:29:47;4.40;;;4.00;;
5117;SDS011;2578;51.622;7.046;2022-10-31T08:32:13;4.20;;;3.80;;
5117;SDS011;2578;51.622;7.046;2022-10-31T08:34:39;3.80;;;3.40;;
5117;SDS011;2578;51.622;7.046;2022-10-31T08:37:04;3.63;;;3.17;;
5117;SDS011;2578;51.622;7.046;2022-10-31T08:39:30;4.03;;;3.63;;
5117;SDS011;2578;51.622;7.046;2022-10-31T08:41:55;3.67;;;3.10;;
5117;SDS011;2578;51.622;7.046;2022-10-31T08:44:21;5.70;;;5.20;;
5117;SDS011;2578;51.622;7.046;2022-10-31T08:46:47;4.17;;;3.77;;
5117;SDS011;2578;51.622;7.046;2022-10-31T08:49:12;4.27;;;3.87;;
5117;SDS011;2578;51.622;7.046;2022-10-31T08:51:38;7.43;;;6.13;;
5117;SDS011;2578;51.622;7.046;2022-10-31T08:54:03;8.43;;;6.47;;
5117;SDS011;2578;51.622;7.046;2022-10-31T08:56:29;7.33;;;6.73;;
5117;SDS011;2578;51.622;7.046;2022-10-31T08:58:58;5.07;;;4.57;;
5117;SDS011;2578;51.622;7.046;2022-10-31T09:01:24;5.77;;;5.17;;
5117;SDS011;2578;51.622;7.046;2022-10-31T09:03:49;5.37;;;4.17;;
5117;SDS011;2578;51.622;7.046;2022-10-31T09:06:15;3.50;;;3.20;;
5117;SDS011;2578;51.622;7.046;2022-10-31T09:08:40;4.50;;;3.90;;
5117;SDS011;2578;51.622;7.046;2022-10-31T09:11:06;3.87;;;3.47;;
5117;SDS011;2578;51.622;7.046;2022-10-31T09:13:32;4.30;;;3.90;;
5117;SDS011;2578;51.622;7.046;2022-10-31T09:15:58;6.50;;;5.90;;
5117;SDS011;2578;51.622;7.046;2022-10-31T09:20:51;5.63;;;5.13;;
5117;SDS011;2578;51.622;7.046;2022-10-31T09:23:19;5.70;;;5.20;;
5117;SDS011;2578;51.622;7.046;2022-10-31T09:25:46;7.13;;;6.63;;
5117;SDS011;2578;51.622;7.046;2022-10-31T09:28:14;8.43;;;7.73;;
5117;SDS011;2578;51.622;7.046;2022-10-31T09:30:41;6.60;;;6.10;;
5117;SDS011;2578;51.622;7.046;2022-10-31T09:33:10;7.07;;;6.50;;
5117;SDS011;2578;51.622;7.046;2022-10-31T09:35:37;11.33;;;8.00;;
5117;SDS011;2578;51.622;7.046;2022-10-31T09:38:05;9.27;;;8.43;;
5117;SDS011;2578;51.622;7.046;2022-10-31T09:40:40;9.60;;;8.80;;
5117;SDS011;2578;51.622;7.046;2022-10-31T09:43:26;10.63;;;9.83;;
5117;SDS011;2578;51.622;7.046;2022-10-31T09:51:45;13.80;;;9.40;;
5117;SDS011;2578;51.622;7.046;2022-10-31T09:54:20;22.23;;;8.17;;
5117;SDS011;2578;51.622;7.046;2022-10-31T09:56:52;6.97;;;6.47;;
5117;SDS011;2578;51.622;7.046;2022-10-31T09:59:24;15.33;;;6.37;;
5117;SDS011;2578;51.622;7.046;2022-10-31T10:01:58;9.93;;;8.20;;
5117;SDS011;2578;51.622;7.046;2022-10-31T10:09:55;5.47;;;4.90;;
5117;SDS011;2578;51.622;7.046;2022-10-31T10:15:16;5.53;;;4.13;;
5117;SDS011;2578;51.622;7.046;2022-10-31T10:25:42;15.43;;;5.03;;
5117;SDS011;2578;51.622;7.046;2022-10-31T10:30:42;6.97;;;6.30;;
5117;SDS011;2578;51.622;7.046;2022-10-31T10:33:14;6.47;;;6.00;;
5117;SDS011;2578;51.622;7.046;2022-10-31T10:35:42;16.10;;;10.10;;
5117;SDS011;2578;51.622;7.046;2022-10-31T10:41:07;13.60;;;12.50;;
5117;SDS011;2578;51.622;7.046;2022-10-31T10:43:39;12.23;;;11.43;;
5117;SDS011;2578;51.622;7.046;2022-10-31T10:51:45;13.83;;;12.93;;
5117;SDS011;2578;51.622;7.046;2022-10-31T10:57:09;12.83;;;11.80;;
5117;SDS011;2578;51.622;7.046;2022-10-31T10:59:55;12.47;;;11.27;;
5117;SDS011;2578;51.622;7.046;2022-10-31T11:02:23;12.60;;;11.57;;
5117;SDS011;2578;51.622;7.046;2022-10-31T11:04:56;10.40;;;9.70;;
5117;SDS011;2578;51.622;7.046;2022-10-31T11:07:23;11.33;;;10.53;;
5117;SDS011;2578;51.622;7.046;2022-10-31T11:09:49;9.43;;;8.83;;
5117;SDS011;2578;51.622;7.046;2022-10-31T11:12:26;7.90;;;7.40;;
5117;SDS011;2578;51.622;7.046;2022-10-31T11:14:57;8.60;;;7.90;;
5117;SDS011;2578;51.622;7.046;2022-10-31T11:22:36;8.70;;;8.10;;
5117;SDS011;2578;51.622;7.046;2022-10-31T11:25:14;9.80;;;9.00;;
5117;SDS011;2578;51.622;7.046;2022-10-31T11:28:02;15.97;;;10.70;;
5117;SDS011;2578;51.622;7.046;2022-10-31T11:30:30;10.23;;;9.33;;
5117;SDS011;2578;51.622;7.046;2022-10-31T11:33:14;11.27;;;10.20;;
5117;SDS011;2578;51.622;7.046;2022-10-31T11:35:52;10.53;;;9.87;;
5117;SDS011;2578;51.622;7.046;2022-10-31T11:38:20;12.53;;;11.73;;
5117;SDS011;2578;51.622;7.046;2022-10-31T11:40:51;11.47;;;10.67;;
5117;SDS011;2578;51.622;7.046;2022-10-31T11:43:37;13.97;;;10.83;;
5117;SDS011;2578;51.622;7.046;2022-10-31T11:46:11;9.70;;;9.10;;
5117;SDS011;2578;51.622;7.046;2022-10-31T11:48:45;11.23;;;10.40;;
5117;SDS011;2578;51.622;7.046;2022-10-31T11:51:26;9.70;;;8.90;;
5117;SDS011;2578;51.622;7.046;2022-10-31T11:53:59;9.23;;;8.50;;
5117;SDS011;2578;51.622;7.046;2022-10-31T11:56:27;12.90;;;11.80;;
5117;SDS011;2578;51.622;7.046;2022-10-31T11:59:03;11.50;;;10.80;;
5117;SDS011;2578;51.622;7.046;2022-10-31T12:01:31;12.90;;;11.47;;
5117;SDS011;2578;51.622;7.046;2022-10-31T12:06:31;12.17;;;11.20;;
5117;SDS011;2578;51.622;7.046;2022-10-31T12:09:00;11.33;;;10.43;;
5117;SDS011;2578;51.622;7.046;2022-10-31T12:17:13;9.80;;;9.20;;
5117;SDS011;2578;51.622;7.046;2022-10-31T12:33:36;8.87;;;8.27;;
5117;SDS011;2578;51.622;7.046;2022-10-31T12:41:44;10.00;;;9.40;;
5117;SDS011;2578;51.622;7.046;2022-10-31T12:55:28;9.50;;;8.90;;
5117;SDS011;2578;51.622;7.046;2022-10-31T13:01:34;13.27;;;12.37;;
5117;SDS011;2578;51.622;7.046;2022-10-31T13:04:05;12.10;;;11.20;;
5117;SDS011;2578;51.622;7.046;2022-10-31T13:07:02;13.10;;;12.30;;
5117;SDS011;2578;51.622;7.046;2022-10-31T13:09:38;13.17;;;12.27;;
5117;SDS011;2578;51.622;7.046;2022-10-31T13:12:09;13.43;;;12.03;;
5117;SDS011;2578;51.622;7.046;2022-10-31T13:14:41;12.13;;;11.33;;
5117;SDS011;2578;51.622;7.046;2022-10-31T13:17:43;11.50;;;10.80;;
5117;SDS011;2578;51.622;7.046;2022-10-31T13:20:16;12.00;;;11.30;;
5117;SDS011;2578;51.622;7.046;2022-10-31T13:22:49;12.90;;;12.10;;
5117;SDS011;2578;51.622;7.046;2022-10-31T13:25:27;15.87;;;14.77;;
5117;SDS011;2578;51.622;7.046;2022-10-31T13:28:02;14.87;;;13.97;;
5117;SDS011;2578;51.622;7.046;2022-10-31T13:30:42;14.83;;;13.73;;
5117;SDS011;2578;51.622;7.046;2022-10-31T13:41:28;12.80;;;11.90;;
5117;SDS011;2578;51.622;7.046;2022-10-31T13:48:58;8.43;;;7.83;;
5117;SDS011;2578;51.622;7.046;2022-10-31T13:51:25;8.93;;;8.33;;
5117;SDS011;2578;51.622;7.046;2022-10-31T13:53:57;8.80;;;8.20;;
5117;SDS011;2578;51.622;7.046;2022-10-31T13:56:34;7.67;;;7.17;;
5117;SDS011;2578;51.622;7.046;2022-10-31T14:01:32;16.90;;;7.50;;
5117;SDS011;2578;51.622;7.046;2022-10-31T14:03:59;8.80;;;8.20;;
5117;SDS011;2578;51.622;7.046;2022-10-31T14:06:34;7.70;;;7.20;;
5117;SDS011;2578;51.622;7.046;2022-10-31T14:09:25;20.33;;;9.77;;
5117;SDS011;2578;51.622;7.046;2022-10-31T14:11:54;10.83;;;8.80;;
5117;SDS011;2578;51.622;7.046;2022-10-31T14:14:23;13.23;;;10.40;;
5117;SDS011;2578;51.622;7.046;2022-10-31T14:16:56;8.73;;;8.07;;
5117;SDS011;2578;51.622;7.046;2022-10-31T14:19:22;7.17;;;6.67;;
5117;SDS011;2578;51.622;7.046;2022-10-31T14:21:50;7.83;;;7.23;;
5117;SDS011;2578;51.622;7.046;2022-10-31T14:26:52;13.23;;;8.60;;
5117;SDS011;2578;51.622;7.046;2022-10-31T14:29:25;9.20;;;8.30;;
5117;SDS011;2578;51.622;7.046;2022-10-31T14:32:01;7.53;;;7.03;;
5117;SDS011;2578;51.622;7.046;2022-10-31T14:40:27;6.83;;;6.33;;
5117;SDS011;2578;51.622;7.046;2022-10-31T14:51:48;6.13;;;5.67;;
5117;SDS011;2578;51.622;7.046;2022-10-31T14:54:27;9.40;;;7.30;;
5117;SDS011;2578;51.622;7.046;2022-10-31T14:56:57;6.40;;;5.90;;
5117;SDS011;2578;51.622;7.046;2022-10-31T14:59:41;6.47;;;5.87;;
5117;SDS011;2578;51.622;7.046;2022-10-31T15:04:59;5.00;;;4.50;;
5117;SDS011;2578;51.622;7.046;2022-10-31T15:07:26;5.10;;;4.70;;
5117;SDS011;2578;51.622;7.046;2022-10-31T15:09:56;6.60;;;6.00;;
5117;SDS011;2578;51.622;7.046;2022-10-31T15:12:30;4.13;;;3.73;;
5117;SDS011;2578;51.622;7.046;2022-10-31T15:14:57;5.63;;;5.03;;
5117;SDS011;2578;51.622;7.046;2022-10-31T15:17:35;3.93;;;3.53;;
5117;SDS011;2578;51.622;7.046;2022-10-31T15:20:06;3.40;;;3.10;;
5117;SDS011;2578;51.622;7.046;2022-10-31T15:22:35;4.10;;;3.70;;
5117;SDS011;2578;51.622;7.046;2022-10-31T15:25:01;3.50;;;3.20;;
5117;SDS011;2578;51.622;7.046;2022-10-31T15:27:27;3.43;;;3.00;;
5117;SDS011;2578;51.622;7.046;2022-10-31T15:29:55;5.40;;;4.90;;
5117;SDS011;2578;51.622;7.046;2022-10-31T15:32:25;3.70;;;3.30;;
5117;SDS011;2578;51.622;7.046;2022-10-31T15:34:52;4.03;;;3.63;;
5117;SDS011;2578;51.622;7.046;2022-10-31T15:37:22;3.47;;;2.90;;
5117;SDS011;2578;51.622;7.046;2022-10-31T15:39:49;3.60;;;3.20;;
5117;SDS011;2578;51.622;7.046;2022-10-31T15:42:23;3.40;;;3.00;;
5117;SDS011;2578;51.622;7.046;2022-10-31T15:45:04;9.37;;;3.20;;
5117;SDS011;2578;51.622;7.046;2022-10-31T15:47:58;3.27;;;2.70;;
5117;SDS011;2578;51.622;7.046;2022-10-31T15:50:27;3.70;;;3.17;;
5117;SDS011;2578;51.622;7.046;2022-10-31T15:52:56;3.20;;;2.50;;
5117;SDS011;2578;51.622;7.046;2022-10-31T15:55:24;4.37;;;2.93;;
5117;SDS011;2578;51.622;7.046;2022-10-31T15:57:54;4.00;;;3.50;;
5117;SDS011;2578;51.622;7.046;2022-10-31T16:03:06;3.17;;;2.40;;
5117;SDS011;2578;51.622;7.046;2022-10-31T16:05:43;3.10;;;2.10;;
5117;SDS011;2578;51.622;7.046;2022-10-31T16:10:54;3.20;;;2.30;;
5117;SDS011;2578;51.622;7.046;2022-10-31T16:13:27;3.20;;;2.20;;
5117;SDS011;2578;51.622;7.046;2022-10-31T16:16:30;3.00;;;1.83;;
5117;SDS011;2578;51.622;7.046;2022-10-31T16:18:49;3.10;;;2.00;;
5117;SDS011;2578;51.622;7.046;2022-10-31T16:21:16;3.10;;;1.90;;
5117;SDS011;2578;51.622;7.046;2022-10-31T16:23:55;3.33;;;2.35;;
5117;SDS011;2578;51.622;7.046;2022-10-31T16:26:25;3.40;;;2.28;;
5117;SDS011;2578;51.622;7.046;2022-10-31T16:28:52;3.77;;;3.13;;
5117;SDS011;2578;51.622;7.046;2022-10-31T16:31:27;3.10;;;2.10;;
5117;SDS011;2578;51.622;7.046;2022-10-31T16:34:02;3.10;;;2.00;;
5117;SDS011;2578;51.622;7.046;2022-10-31T16:36:41;3.00;;;1.90;;
5117;SDS011;2578;51.622;7.046;2022-10-31T16:39:08;2.97;;;1.67;;
5117;SDS011;2578;51.622;7.046;2022-10-31T16:41:34;2.90;;;1.60;;
5117;SDS011;2578;51.622;7.046;2022-10-31T16:44:06;2.93;;;1.50;;
5117;SDS011;2578;51.622;7.046;2022-10-31T16:46:41;6.03;;;2.43;;
5117;SDS011;2578;51.622;7.046;2022-10-31T16:49:08;3.40;;;2.17;;
5117;SDS011;2578;51.622;7.046;2022-10-31T16:51:34;3.70;;;2.20;;
5117;SDS011;2578;51.622;7.046;2022-10-31T16:54:00;4.90;;;2.47;;
5117;SDS011;2578;51.622;7.046;2022-10-31T16:56:32;4.20;;;2.43;;
5117;SDS011;2578;51.622;7.046;2022-10-31T16:59:00;2.97;;;1.50;;
5117;SDS011;2578;51.622;7.046;2022-10-31T17:01:27;3.00;;;1.40;;
5117;SDS011;2578;51.622;7.046;2022-10-31T17:03:54;3.40;;;1.73;;
5117;SDS011;2578;51.622;7.046;2022-10-31T17:06:19;3.80;;;1.93;;
5117;SDS011;2578;51.622;7.046;2022-10-31T17:08:45;5.33;;;2.93;;
5117;SDS011;2578;51.622;7.046;2022-10-31T17:11:13;4.57;;;3.20;;
5117;SDS011;2578;51.622;7.046;2022-10-31T17:13:42;3.30;;;1.90;;
5117;SDS011;2578;51.622;7.046;2022-10-31T17:16:07;3.60;;;2.10;;
5117;SDS011;2578;51.622;7.046;2022-10-31T17:18:33;6.27;;;3.70;;
5117;SDS011;2578;51.622;7.046;2022-10-31T17:21:00;8.37;;;3.30;;
5117;SDS011;2578;51.622;7.046;2022-10-31T17:23:27;3.40;;;2.30;;
5117;SDS011;2578;51.622;7.046;2022-10-31T17:25:54;3.03;;;1.60;;
5117;SDS011;2578;51.622;7.046;2022-10-31T17:28:20;3.50;;;2.37;;
5117;SDS011;2578;51.622;7.046;2022-10-31T17:30:45;3.10;;;1.80;;
5117;SDS011;2578;51.622;7.046;2022-10-31T17:33:11;3.10;;;1.80;;
5117;SDS011;2578;51.622;7.046;2022-10-31T17:35:39;3.83;;;2.60;;
5117;SDS011;2578;51.622;7.046;2022-10-31T17:38:08;4.33;;;3.77;;
5117;SDS011;2578;51.622;7.046;2022-10-31T17:40:35;4.47;;;3.10;;
5117;SDS011;2578;51.622;7.046;2022-10-31T17:43:03;12.53;;;3.80;;
5117;SDS011;2578;51.622;7.046;2022-10-31T17:45:28;3.60;;;2.33;;
5117;SDS011;2578;51.622;7.046;2022-10-31T17:47:54;3.80;;;2.30;;
5117;SDS011;2578;51.622;7.046;2022-10-31T17:50:20;3.70;;;2.00;;
5117;SDS011;2578;51.622;7.046;2022-10-31T17:52:48;3.10;;;2.00;;
5117;SDS011;2578;51.622;7.046;2022-10-31T17:55:14;5.57;;;3.03;;